createdAt,value
2022-09-20T00:04:30.478Z,16.25
2022-09-20T00:09:36.286Z,16.38
2022-09-20T00:14:40.580Z,14.93
2022-09-20T00:19:44.886Z,15.07
2022-09-20T00:24:50.692Z,15.00
2022-09-20T00:29:55.508Z,13.65
2022-09-20T00:35:10.377Z,15.05
2022-09-20T00:40:20.887Z,14.68
2022-09-20T00:45:27.363Z,13.57
2022-09-20T00:50:38.439Z,15.57
2022-09-20T00:55:49.039Z,16.65
2022-09-20T01:00:55.520Z,14.93
2022-09-20T01:06:03.618Z,16.13
2022-09-20T01:11:09.756Z,15.40
2022-09-20T01:16:16.563Z,14.60
2022-09-20T01:21:21.571Z,14.23
2022-09-20T01:26:56.463Z,15.20
2022-09-20T01:32:05.486Z,14.30
2022-09-20T01:37:16.397Z,15.97
2022-09-20T01:42:27.255Z,14.38
2022-09-20T01:47:40.545Z,15.70
2022-09-20T01:53:18.346Z,16.67
2022-09-20T01:59:27.060Z,16.65
2022-09-20T02:04:59.227Z,13.97
2022-09-20T02:10:39.961Z,15.20
2022-09-20T02:16:29.902Z,15.95
2022-09-20T02:21:42.241Z,16.25
2022-09-20T02:27:01.426Z,20.23
2022-09-20T02:32:25.180Z,17.33
2022-09-20T02:37:59.186Z,18.17
2022-09-20T02:43:12.544Z,18.45
2022-09-20T02:48:25.872Z,14.75
2022-09-20T02:53:41.817Z,15.18
2022-09-20T02:58:56.622Z,13.88
2022-09-20T03:04:16.184Z,14.32
2022-09-20T03:09:35.725Z,14.95
2022-09-20T03:14:47.282Z,17.48
2022-09-20T03:20:15.034Z,18.10
2022-09-20T03:25:41.230Z,15.70
2022-09-20T03:31:00.204Z,14.55
2022-09-20T03:36:16.838Z,14.20
2022-09-20T03:41:37.867Z,15.85
2022-09-20T03:46:47.530Z,18.95
2022-09-20T03:57:30.271Z,19.70
2022-09-20T04:02:55.436Z,18.35
2022-09-20T04:08:14.205Z,16.08
2022-09-20T04:13:38.830Z,14.77
2022-09-20T04:18:51.875Z,12.98
2022-09-20T04:24:02.767Z,13.82
2022-09-20T04:29:23.187Z,12.90
2022-09-20T04:34:48.559Z,13.07
2022-09-20T04:40:01.510Z,13.10
2022-09-20T04:45:39.408Z,12.48
2022-09-20T04:51:26.632Z,11.93
2022-09-20T04:56:50.678Z,11.73
2022-09-20T05:02:30.285Z,12.45
2022-09-20T05:08:19.303Z,13.45
2022-09-20T05:13:37.815Z,13.63
2022-09-20T05:19:05.332Z,17.77
2022-09-20T05:24:36.068Z,15.77
2022-09-20T05:29:50.465Z,12.68
2022-09-20T05:35:03.356Z,12.32
2022-09-20T05:40:24.614Z,14.52
2022-09-20T05:45:50.449Z,12.73
2022-09-20T05:51:03.654Z,10.70
2022-09-20T05:56:19.997Z,8.60
2022-09-20T06:01:29.633Z,10.07
2022-09-20T06:12:05.291Z,12.18
2022-09-20T06:17:24.851Z,14.52
2022-09-20T06:22:33.098Z,15.90
2022-09-20T06:27:44.619Z,14.80
2022-09-20T06:32:56.871Z,15.50
2022-09-20T06:38:33.130Z,16.92
2022-09-20T06:43:42.081Z,15.23
2022-09-20T06:48:48.175Z,15.82
2022-09-20T06:53:53.194Z,15.63
2022-09-20T06:59:00.015Z,18.60
2022-09-20T07:04:05.474Z,20.45
2022-09-20T07:09:12.738Z,27.95
2022-09-20T07:14:20.295Z,24.70
2022-09-20T07:19:24.838Z,20.50
2022-09-20T07:24:33.460Z,21.92
2022-09-20T07:29:41.287Z,18.77
2022-09-20T07:34:47.841Z,18.85
2022-09-20T07:39:52.344Z,23.05
2022-09-20T07:44:58.583Z,21.67
2022-09-20T07:50:04.403Z,22.05
2022-09-20T07:55:09.879Z,20.40
2022-09-20T08:00:17.602Z,19.00
2022-09-20T08:05:21.872Z,16.80
2022-09-20T08:10:27.506Z,13.40
2022-09-20T08:15:33.108Z,13.98
2022-09-20T08:20:38.939Z,13.18
2022-09-20T08:25:43.526Z,18.70
2022-09-20T08:30:49.420Z,13.68
2022-09-20T08:35:57.837Z,10.23
2022-09-20T08:41:06.097Z,11.90
2022-09-20T08:46:23.403Z,15.23
2022-09-20T08:51:31.824Z,16.30
2022-09-20T08:56:38.343Z,14.25
2022-09-20T09:01:44.954Z,11.93
2022-09-20T09:06:51.245Z,8.05
2022-09-20T09:11:59.090Z,7.93
2022-09-20T09:17:05.778Z,9.45
2022-09-20T09:22:10.634Z,8.60
2022-09-20T09:27:18.032Z,10.20
2022-09-20T09:32:29.490Z,6.65
2022-09-20T09:37:34.788Z,7.60
2022-09-20T09:42:39.452Z,6.70
2022-09-20T09:47:46.752Z,7.03
2022-09-20T09:53:00.770Z,5.43
2022-09-20T09:58:16.340Z,5.00
2022-09-20T10:03:47.333Z,4.53
2022-09-20T10:09:10.068Z,2.78
2022-09-20T10:14:26.166Z,3.05
2022-09-20T10:19:46.892Z,2.72
2022-09-20T10:25:03.240Z,4.63
2022-09-20T10:30:14.219Z,2.40
2022-09-20T10:35:38.535Z,2.53
2022-09-20T10:41:13.615Z,2.38
2022-09-20T10:46:32.994Z,3.55
2022-09-20T11:02:15.194Z,2.38
2022-09-20T11:07:30.924Z,2.92
2022-09-20T11:12:42.920Z,2.53
2022-09-20T11:17:57.044Z,7.75
2022-09-20T11:23:08.066Z,10.45
2022-09-20T11:28:20.854Z,5.70
2022-09-20T11:33:30.463Z,7.65
2022-09-20T11:38:41.161Z,4.30
2022-09-20T11:43:47.372Z,3.88
2022-09-20T11:48:56.972Z,3.83
2022-09-20T11:54:29.278Z,3.72
2022-09-20T11:59:37.374Z,1.80
2022-09-20T12:04:48.355Z,1.95
2022-09-20T12:10:01.023Z,2.65
2022-09-20T12:15:09.600Z,2.00
2022-09-20T12:20:54.047Z,1.70
2022-09-20T12:26:06.149Z,1.77
2022-09-20T12:31:43.254Z,2.17
2022-09-20T12:42:38.092Z,3.20
2022-09-20T12:47:52.791Z,1.42
2022-09-20T12:52:59.276Z,1.10
2022-09-20T12:58:11.990Z,1.67
2022-09-20T13:03:32.238Z,1.45
2022-09-20T13:08:43.360Z,1.45
2022-09-20T13:13:53.151Z,1.60
2022-09-20T13:19:06.226Z,2.45
2022-09-20T13:24:17.632Z,1.85
2022-09-20T13:29:29.846Z,1.58
2022-09-20T13:34:34.817Z,1.98
2022-09-20T13:39:39.821Z,2.17
2022-09-20T13:44:46.296Z,2.30
2022-09-20T13:49:51.090Z,2.58
2022-09-20T13:54:56.959Z,2.88
2022-09-20T14:00:04.011Z,2.00
2022-09-20T14:05:20.054Z,1.77
2022-09-20T14:10:34.181Z,1.42
2022-09-20T14:15:43.153Z,1.48
2022-09-20T14:20:48.320Z,1.23
2022-09-20T14:26:11.072Z,1.63
2022-09-20T14:31:22.311Z,2.25
2022-09-20T14:36:29.605Z,3.58
2022-09-20T14:41:37.822Z,3.33
2022-09-20T14:46:44.160Z,2.30
2022-09-20T14:51:48.809Z,2.50
2022-09-20T14:56:55.338Z,2.05
2022-09-20T15:02:05.521Z,2.42
2022-09-20T15:07:12.180Z,2.70
2022-09-20T15:12:18.125Z,3.38
2022-09-20T15:17:24.792Z,4.15
2022-09-20T15:22:30.450Z,4.90
2022-09-20T15:27:35.578Z,4.60
2022-09-20T15:32:43.882Z,4.32
2022-09-20T15:37:48.534Z,11.18
2022-09-20T15:43:00.192Z,5.78
2022-09-20T15:48:06.975Z,5.43
2022-09-20T15:53:13.059Z,3.60
2022-09-20T15:58:18.074Z,3.03
2022-09-20T16:03:30.412Z,1.90
2022-09-20T16:08:36.076Z,2.30
2022-09-20T16:13:40.780Z,2.13
2022-09-20T16:19:05.412Z,3.72
2022-09-20T16:24:14.122Z,4.45
2022-09-20T16:29:20.273Z,5.20
2022-09-20T16:34:31.355Z,5.30
2022-09-20T16:39:38.736Z,6.05
2022-09-20T16:44:44.277Z,9.02
2022-09-20T16:49:53.481Z,8.75
2022-09-20T16:54:57.927Z,10.95
2022-09-20T17:00:02.281Z,12.45
2022-09-20T17:05:10.819Z,13.75
2022-09-20T17:10:15.393Z,29.67
2022-09-20T17:15:20.046Z,34.15
2022-09-20T17:20:27.495Z,29.90
2022-09-20T17:25:32.281Z,30.15
2022-09-20T17:30:37.372Z,28.17
2022-09-20T17:35:52.759Z,27.20
2022-09-20T17:41:02.156Z,25.75
2022-09-20T17:46:12.965Z,24.35
2022-09-20T17:51:21.491Z,24.80
2022-09-20T17:56:29.027Z,25.88
2022-09-20T18:01:35.837Z,29.33
2022-09-20T19:39:55.696Z,14.63
2022-09-20T19:45:13.997Z,15.20
2022-09-20T19:50:28.701Z,14.82
2022-09-20T19:55:37.438Z,13.70
2022-09-20T20:00:44.772Z,14.43
2022-09-20T20:05:57.114Z,33.85
2022-09-20T20:11:12.067Z,33.63
2022-09-20T20:16:21.833Z,8.23
2022-09-20T20:26:39.094Z,3.67
2022-09-20T20:31:43.765Z,2.80
2022-09-20T20:36:48.982Z,3.08
2022-09-20T20:41:57.431Z,3.65
2022-09-20T20:47:04.144Z,3.17
2022-09-20T20:52:09.168Z,3.67
2022-09-20T20:57:17.336Z,4.30
2022-09-20T21:02:22.284Z,5.75
2022-09-20T21:07:26.400Z,7.68
2022-09-20T21:12:32.579Z,12.90
2022-09-20T21:17:36.946Z,13.85
2022-09-20T21:22:41.395Z,9.98
2022-09-20T21:27:47.909Z,9.55
2022-09-20T21:32:57.662Z,8.48
2022-09-20T21:38:02.328Z,10.15
2022-09-20T21:43:08.384Z,11.65
2022-09-20T21:48:12.907Z,13.65
2022-09-20T21:53:18.590Z,13.15
2022-09-20T21:58:25.325Z,14.45
2022-09-20T22:03:34.409Z,13.48
2022-09-20T22:08:40.357Z,11.30
2022-09-20T22:13:48.156Z,11.35
2022-09-20T22:18:53.035Z,11.60
2022-09-20T22:23:58.957Z,10.93
2022-09-20T22:29:06.785Z,10.70
2022-09-20T22:34:11.396Z,12.35
2022-09-20T22:39:17.505Z,10.57
2022-09-20T22:44:23.803Z,13.45
2022-09-20T22:49:28.148Z,12.35
2022-09-20T22:54:32.362Z,13.68
2022-09-20T22:59:38.104Z,11.70
2022-09-20T23:04:42.461Z,11.15
2022-09-20T23:09:46.626Z,11.43
2022-09-20T23:14:53.091Z,12.55
2022-09-20T23:19:57.418Z,13.32
2022-09-20T23:25:01.558Z,13.18
2022-09-20T23:30:09.658Z,13.15
2022-09-20T23:35:14.403Z,13.75
2022-09-20T23:40:19.338Z,12.65
2022-09-20T23:45:25.595Z,13.98
2022-09-20T23:50:30.038Z,12.45
2022-09-20T23:55:34.455Z,13.98
